Time;durP1;ratioP1;P1;durP2;ratioP2;P2;SDS_P1;SDS_P2;PMS_P1;PMS_P2;Temp;Humidity;BMP_temperature;BMP_pressure;BME280_temperature;BME280_humidity;BME280_pressure;Samples;Min_cycle;Max_cycle;Signal;HPM_P1;HPM_P2
2021/06/11 00:00:31;;;;;;;7.25;6.13;;;20.30;80.00;;;;;;5015557;28;20168;-81
2021/06/11 00:02:57;;;;;;;8.23;6.25;;;20.40;79.70;;;;;;5015469;28;20018;-81
2021/06/11 00:05:22;;;;;;;8.13;5.82;;;20.40;79.20;;;;;;5000223;28;20113;-82
2021/06/11 00:07:48;;;;;;;8.85;6.07;;;20.40;78.90;;;;;;5001764;28;20502;-81
2021/06/11 00:10:14;;;;;;;8.40;6.28;;;20.40;78.80;;;;;;5002609;28;20034;-80
2021/06/11 00:12:41;;;;;;;7.68;5.95;;;20.40;78.90;;;;;;4980282;28;20201;-80
2021/06/11 00:15:09;;;;;;;9.00;5.82;;;20.30;79.40;;;;;;4978897;28;20117;-81
2021/06/11 00:17:35;;;;;;;10.30;6.30;;;20.30;79.80;;;;;;4981021;28;20534;-82
2021/06/11 00:20:01;;;;;;;9.70;5.65;;;20.20;79.80;;;;;;4997652;28;20054;-81
2021/06/11 00:22:26;;;;;;;7.70;6.03;;;20.20;80.00;;;;;;4996927;28;20089;-81
2021/06/11 00:24:52;;;;;;;9.85;6.30;;;20.30;79.80;;;;;;4983844;28;20085;-82
2021/06/11 00:27:18;;;;;;;7.80;5.82;;;20.20;79.90;;;;;;4978836;28;20121;-81
2021/06/11 00:29:43;;;;;;;8.38;6.25;;;20.30;80.10;;;;;;5008679;28;20547;-81
2021/06/11 00:32:09;;;;;;;9.70;6.25;;;20.20;80.10;;;;;;4985190;28;20032;-81
2021/06/11 00:34:35;;;;;;;9.35;6.15;;;20.20;80.60;;;;;;5013667;28;20029;-81
2021/06/11 00:37:00;;;;;;;8.45;6.25;;;20.00;80.90;;;;;;5000008;28;20030;-82
2021/06/11 00:39:26;;;;;;;8.38;6.22;;;20.00;81.20;;;;;;5009991;28;20048;-82
2021/06/11 00:41:51;;;;;;;9.48;6.35;;;20.00;81.30;;;;;;4977086;28;20435;-81
2021/06/11 00:44:17;;;;;;;11.88;6.75;;;20.10;81.50;;;;;;4985148;28;20492;-81
2021/06/11 00:46:43;;;;;;;10.48;6.60;;;20.00;81.20;;;;;;4980898;28;20035;-81
2021/06/11 00:49:08;;;;;;;8.35;6.25;;;20.00;81.20;;;;;;5010299;28;20021;-82
2021/06/11 00:51:35;;;;;;;8.80;6.53;;;19.90;81.60;;;;;;5010940;28;20466;-81
2021/06/11 00:54:01;;;;;;;9.18;5.90;;;19.90;81.40;;;;;;4977436;28;20101;-81
2021/06/11 00:56:27;;;;;;;7.20;5.95;;;19.80;82.30;;;;;;5003901;28;20490;-82
2021/06/11 00:58:53;;;;;;;8.43;6.10;;;19.80;82.50;;;;;;5000710;28;20026;-82
2021/06/11 01:01:19;;;;;;;8.93;6.32;;;19.70;82.90;;;;;;4977857;28;20030;-81
2021/06/11 01:03:45;;;;;;;7.05;6.05;;;19.70;82.80;;;;;;4996917;28;20045;-81
2021/06/11 01:06:11;;;;;;;8.60;6.35;;;19.70;82.90;;;;;;5006540;28;20027;-81
2021/06/11 01:08:39;;;;;;;9.57;6.47;;;19.70;82.70;;;;;;4987153;28;20049;-80
2021/06/11 01:11:06;;;;;;;8.80;6.97;;;19.70;82.50;;;;;;4999182;28;20030;-81
2021/06/11 01:13:32;;;;;;;8.38;6.65;;;19.60;83.00;;;;;;4995328;28;20417;-82
2021/06/11 01:15:58;;;;;;;8.07;6.45;;;19.50;83.80;;;;;;4990842;28;20022;-82
2021/06/11 01:18:23;;;;;;;8.35;6.15;;;19.40;84.10;;;;;;4994088;28;20475;-82
2021/06/11 01:20:50;;;;;;;9.40;6.65;;;19.40;84.50;;;;;;4977694;28;20027;-82
2021/06/11 01:23:34;;;;;;;8.63;6.05;;;19.40;84.10;;;;;;5010547;28;20034;-82
2021/06/11 01:26:21;;;;;;;10.25;6.40;;;19.40;84.10;;;;;;4977002;28;20170;-82
2021/06/11 01:28:51;;;;;;;9.05;6.75;;;19.30;84.10;;;;;;5000000;28;20089;-82
2021/06/11 01:31:18;;;;;;;9.38;6.53;;;19.30;84.10;;;;;;5006598;28;20026;-82
2021/06/11 01:33:47;;;;;;;9.43;6.38;;;19.30;84.30;;;;;;4980542;28;20026;-82
2021/06/11 01:36:18;;;;;;;9.77;6.45;;;19.30;84.30;;;;;;5006418;28;20072;-82
2021/06/11 01:38:47;;;;;;;9.32;6.80;;;19.30;84.40;;;;;;4987690;28;20073;-82
2021/06/11 01:41:16;;;;;;;8.70;6.55;;;19.20;84.70;;;;;;4979568;28;20038;-82
2021/06/11 01:43:43;;;;;;;9.77;7.18;;;19.20;85.00;;;;;;4976759;28;20181;-82
2021/06/11 01:46:12;;;;;;;10.05;7.05;;;19.20;84.70;;;;;;5002117;28;20033;-82
2021/06/11 01:48:40;;;;;;;9.70;6.45;;;19.10;85.00;;;;;;4985157;28;20101;-82
2021/06/11 01:51:08;;;;;;;9.15;6.55;;;19.10;85.10;;;;;;4977380;28;20027;-82
2021/06/11 01:53:36;;;;;;;11.27;6.93;;;19.10;85.30;;;;;;4976348;28;20100;-82
2021/06/11 01:56:02;;;;;;;10.65;7.40;;;19.10;85.60;;;;;;5001045;28;20022;-80
2021/06/11 01:58:29;;;;;;;9.23;7.05;;;19.10;85.60;;;;;;4988648;28;20092;-81
2021/06/11 02:00:55;;;;;;;9.68;6.78;;;19.00;85.50;;;;;;4982057;28;20033;-82
2021/06/11 02:03:23;;;;;;;9.35;6.80;;;18.90;85.80;;;;;;4976464;28;20038;-81
2021/06/11 02:05:49;;;;;;;9.10;6.97;;;18.90;86.00;;;;;;4994108;28;20022;-81
2021/06/11 02:08:16;;;;;;;12.07;7.40;;;18.90;86.00;;;;;;4981434;28;20046;-82
2021/06/11 02:10:43;;;;;;;11.32;7.05;;;18.80;86.10;;;;;;4981151;28;20031;-82
2021/06/11 02:13:09;;;;;;;10.25;6.32;;;18.80;87.10;;;;;;5009154;28;20129;-82
2021/06/11 02:15:35;;;;;;;9.20;6.60;;;18.70;86.50;;;;;;4996474;28;20084;-81
2021/06/11 02:18:02;;;;;;;8.65;6.43;;;18.80;86.30;;;;;;5013268;28;20037;-81
2021/06/11 02:20:28;;;;;;;10.40;7.47;;;18.80;86.20;;;;;;4985201;28;20030;-81
2021/06/11 02:22:54;;;;;;;10.02;6.75;;;18.70;86.00;;;;;;4975909;28;20058;-81
2021/06/11 02:25:25;;;;;;;9.55;7.20;;;18.70;86.40;;;;;;4992799;28;20030;-81
2021/06/11 02:27:54;;;;;;;10.77;7.07;;;18.60;86.40;;;;;;5007907;28;20023;-81
2021/06/11 02:30:20;;;;;;;11.40;7.82;;;18.60;86.70;;;;;;5006322;28;20513;-81
2021/06/11 02:32:46;;;;;;;8.82;7.03;;;18.60;86.80;;;;;;4983142;28;20125;-81
2021/06/11 02:35:24;;;;;;;9.50;7.40;;;18.60;87.00;;;;;;4976238;28;20365;-81
2021/06/11 02:37:51;;;;;;;10.30;7.10;;;18.50;86.80;;;;;;4998842;28;20041;-81
2021/06/11 02:40:17;;;;;;;10.77;7.60;;;18.60;86.50;;;;;;4996075;28;20062;-81
2021/06/11 02:42:48;;;;;;;10.85;7.13;;;18.60;86.30;;;;;;5012504;28;20548;-82
2021/06/11 02:45:20;;;;;;;11.02;6.78;;;18.50;86.80;;;;;;5013304;28;20034;-81
2021/06/11 02:47:58;;;;;;;;;;;18.40;87.10;;;;;;4993797;28;20034;-81
2021/06/11 02:50:32;;;;;;;10.70;6.90;;;18.40;87.10;;;;;;4985717;28;20313;-82
2021/06/11 02:53:00;;;;;;;10.40;6.63;;;18.40;86.50;;;;;;4998298;28;20026;-81
2021/06/11 02:55:27;;;;;;;8.60;6.38;;;18.40;86.00;;;;;;5016838;28;20022;-82
2021/06/11 02:58:13;;;;;;;8.20;6.53;;;18.30;86.30;;;;;;4994635;28;20027;-82
2021/06/11 03:00:41;;;;;;;9.60;7.35;;;18.10;86.90;;;;;;4997099;28;20027;-83
2021/06/11 03:03:35;;;;;;;9.90;6.63;;;18.10;86.70;;;;;;4979819;28;20060;-80
2021/06/11 03:06:03;;;;;;;8.65;6.47;;;18.00;87.10;;;;;;4995480;28;20049;-82
2021/06/11 03:08:31;;;;;;;10.80;7.32;;;18.00;87.40;;;;;;5005303;28;20045;-81
2021/06/11 03:11:09;;;;;;;11.07;7.63;;;17.90;87.80;;;;;;5016082;28;20034;-82
2021/06/11 03:13:36;;;;;;;11.90;7.63;;;17.90;87.80;;;;;;5002123;28;20026;-82
2021/06/11 03:16:03;;;;;;;11.70;7.93;;;17.90;87.90;;;;;;5036891;28;20121;-82
2021/06/11 03:18:36;;;;;;;10.73;7.32;;;17.90;88.00;;;;;;5018431;28;20032;-81
2021/06/11 03:21:26;;;;;;;9.95;7.70;;;17.90;88.30;;;;;;5018970;28;20026;-82
2021/06/11 03:24:01;;;;;;;11.07;7.28;;;17.80;88.30;;;;;;5016843;28;20073;-82
2021/06/11 03:26:43;;;;;;;9.75;7.20;;;17.80;88.20;;;;;;5007834;28;20116;-82
2021/06/11 03:29:12;;;;;;;10.32;7.50;;;17.80;88.50;;;;;;5035212;28;20021;-82
2021/06/11 03:31:52;;;;;;;10.68;7.57;;;17.80;88.50;;;;;;5018817;28;20021;-82
2021/06/11 03:34:29;;;;;;;11.13;7.55;;;17.70;88.50;;;;;;5035840;28;20025;-82
2021/06/11 03:36:57;;;;;;;9.15;7.13;;;17.80;88.90;;;;;;5018604;28;20123;-82
2021/06/11 03:39:31;;;;;;;10.85;7.43;;;17.70;88.80;;;;;;5017973;28;20037;-81
2021/06/11 03:41:58;;;;;;;8.88;7.03;;;17.80;88.90;;;;;;5018448;28;20034;-81
2021/06/11 03:44:26;;;;;;;11.10;7.30;;;17.60;89.20;;;;;;5007840;28;20038;-82
2021/06/11 03:46:54;;;;;;;10.02;7.22;;;17.70;88.90;;;;;;4998760;28;20474;-80
2021/06/11 03:49:22;;;;;;;11.20;7.55;;;17.80;88.50;;;;;;5016769;28;20080;-80
2021/06/11 03:51:50;;;;;;;9.35;7.07;;;17.80;88.10;;;;;;5013294;28;20114;-82
2021/06/11 03:54:18;;;;;;;10.07;7.35;;;17.70;88.40;;;;;;5022622;28;20025;-81
2021/06/11 03:56:45;;;;;;;10.00;7.55;;;17.70;89.00;;;;;;5021298;28;20022;-81
2021/06/11 03:59:14;;;;;;;9.68;7.28;;;17.70;89.00;;;;;;5020873;28;20033;-82
2021/06/11 04:01:46;;;;;;;9.93;7.40;;;17.60;89.20;;;;;;5017730;28;20040;-82
2021/06/11 04:04:13;;;;;;;12.25;7.65;;;17.60;89.50;;;;;;5034342;28;20037;-81
2021/06/11 04:06:44;;;;;;;11.05;7.10;;;17.60;89.40;;;;;;5023566;28;20022;-81
2021/06/11 04:09:12;;;;;;;;;;;17.70;89.40;;;;;;5014282;28;20496;-82
2021/06/11 04:11:50;;;;;;;9.48;7.05;;;17.60;89.40;;;;;;5000697;28;19909;-82
2021/06/11 04:14:24;;;;;;;13.05;8.02;;;17.70;89.40;;;;;;5008846;28;20096;-82
2021/06/11 04:16:53;;;;;;;12.13;7.55;;;17.60;89.30;;;;;;5015478;28;20112;-82
2021/06/11 04:19:38;;;;;;;11.43;7.28;;;17.60;89.80;;;;;;5032443;28;20025;-82
2021/06/11 04:22:05;;;;;;;9.82;7.60;;;17.60;89.60;;;;;;5017874;28;20030;-81
2021/06/11 04:24:34;;;;;;;10.65;7.25;;;17.60;89.50;;;;;;5017223;28;20116;-80
2021/06/11 04:27:00;;;;;;;11.13;7.38;;;17.60;89.40;;;;;;5035304;28;20108;-81
2021/06/11 04:29:28;;;;;;;9.50;6.93;;;17.60;89.40;;;;;;5017315;28;20103;-80
2021/06/11 04:31:54;;;;;;;10.13;7.18;;;17.60;89.20;;;;;;5029696;28;20026;-82
2021/06/11 04:34:21;;;;;;;10.32;7.65;;;17.60;89.00;;;;;;5006851;28;20084;-81
2021/06/11 04:36:48;;;;;;;12.25;7.28;;;17.60;89.10;;;;;;5005034;28;20026;-81
2021/06/11 04:39:13;;;;;;;10.70;7.30;;;17.60;89.30;;;;;;5014458;28;20038;-81
2021/06/11 04:41:39;;;;;;;10.82;7.68;;;17.70;89.40;;;;;;5017420;28;20029;-81
2021/06/11 04:44:07;;;;;;;11.30;7.00;;;17.70;89.40;;;;;;5010019;28;20029;-81
2021/06/11 04:46:36;;;;;;;10.57;7.40;;;17.80;89.20;;;;;;5006510;28;20378;-81
2021/06/11 04:49:04;;;;;;;13.40;7.10;;;17.80;89.00;;;;;;5020246;28;20034;-81
2021/06/11 04:51:30;;;;;;;10.85;6.95;;;17.90;88.90;;;;;;5014774;28;20021;-80
2021/06/11 04:53:56;;;;;;;9.25;6.85;;;17.90;88.90;;;;;;5014869;28;20517;-80
2021/06/11 04:56:21;;;;;;;8.73;6.68;;;17.90;89.00;;;;;;4997914;28;20026;-82
2021/06/11 04:58:49;;;;;;;10.63;7.45;;;18.00;88.90;;;;;;5020223;28;20022;-81
2021/06/11 05:01:15;;;;;;;10.32;7.53;;;18.00;88.70;;;;;;5015121;28;20026;-81
2021/06/11 05:03:40;;;;;;;11.05;7.65;;;18.10;88.80;;;;;;4996894;28;20044;-81
2021/06/11 05:06:06;;;;;;;11.00;7.70;;;18.00;88.80;;;;;;5021996;28;20030;-82
2021/06/11 05:08:32;;;;;;;9.30;7.43;;;18.00;89.30;;;;;;5016535;28;20053;-81
2021/06/11 05:10:59;;;;;;;10.90;7.60;;;18.00;89.80;;;;;;5034057;28;20552;-81
2021/06/11 05:13:24;;;;;;;10.43;7.70;;;18.00;89.80;;;;;;5016338;28;20022;-83
2021/06/11 05:15:50;;;;;;;10.38;7.50;;;18.00;89.80;;;;;;4996781;28;20507;-81
2021/06/11 05:18:16;;;;;;;10.98;7.00;;;18.00;89.90;;;;;;5022944;28;20025;-81
2021/06/11 05:20:42;;;;;;;11.35;8.35;;;18.10;90.00;;;;;;5004091;28;20221;-81
2021/06/11 05:23:08;;;;;;;10.52;7.60;;;18.10;89.80;;;;;;5012131;28;20477;-82
2021/06/11 05:25:35;;;;;;;10.88;7.18;;;18.20;90.00;;;;;;4999350;28;20033;-82
2021/06/11 05:28:01;;;;;;;10.75;7.55;;;18.20;89.90;;;;;;5027049;28;20109;-82
2021/06/11 05:30:27;;;;;;;10.45;7.85;;;18.30;90.00;;;;;;4995500;28;20125;-82
2021/06/11 05:32:54;;;;;;;11.77;8.18;;;18.30;90.10;;;;;;5009540;28;20057;-82
2021/06/11 05:35:20;;;;;;;13.43;8.32;;;18.30;90.20;;;;;;4998575;28;20026;-81
2021/06/11 05:37:46;;;;;;;13.45;8.95;;;18.50;90.10;;;;;;5000062;28;20021;-82
2021/06/11 05:40:12;;;;;;;12.98;8.05;;;18.50;90.00;;;;;;5033692;28;20033;-81
2021/06/11 05:42:38;;;;;;;10.63;8.02;;;18.50;90.40;;;;;;5014476;28;20027;-81
2021/06/11 05:45:07;;;;;;;10.73;8.13;;;18.60;90.30;;;;;;5018189;28;20030;-81
2021/06/11 05:47:37;;;;;;;12.38;8.70;;;18.60;89.80;;;;;;4995970;28;20382;-81
2021/06/11 05:50:04;;;;;;;12.50;8.20;;;18.60;89.30;;;;;;5002455;28;20068;-81
2021/06/11 05:52:29;;;;;;;12.80;8.82;;;18.70;89.70;;;;;;5013888;28;20029;-81
2021/06/11 05:54:55;;;;;;;13.25;8.98;;;18.80;89.20;;;;;;5019088;28;20041;-81
2021/06/11 05:57:20;;;;;;;12.55;9.20;;;18.80;89.60;;;;;;5029706;28;20021;-81
2021/06/11 05:59:46;;;;;;;12.98;9.05;;;18.80;89.60;;;;;;5010044;28;20455;-81
2021/06/11 06:02:12;;;;;;;14.98;9.07;;;18.90;89.70;;;;;;5020517;28;20628;-81
2021/06/11 06:04:37;;;;;;;13.82;9.73;;;18.90;89.70;;;;;;5003590;28;20061;-80
2021/06/11 06:07:03;;;;;;;14.93;9.05;;;19.00;89.40;;;;;;5015084;28;20026;-80
2021/06/11 06:09:29;;;;;;;15.48;9.82;;;19.00;89.50;;;;;;5015673;28;20046;-82
2021/06/11 06:11:54;;;;;;;13.23;8.75;;;19.00;89.50;;;;;;5013629;28;20032;-81
2021/06/11 06:14:20;;;;;;;14.45;10.00;;;19.10;89.10;;;;;;4996511;28;20029;-81
2021/06/11 06:16:46;;;;;;;15.45;9.27;;;19.20;89.20;;;;;;4995724;28;20026;-81
2021/06/11 06:19:11;;;;;;;15.70;10.48;;;19.20;89.00;;;;;;4996353;28;20033;-81
2021/06/11 06:21:37;;;;;;;14.70;10.13;;;19.30;89.30;;;;;;4980926;28;20022;-81
2021/06/11 06:24:03;;;;;;;15.90;10.00;;;19.30;88.90;;;;;;5012670;28;20356;-82
2021/06/11 06:26:29;;;;;;;22.90;14.18;;;19.40;87.30;;;;;;4993371;28;20698;-81
2021/06/11 06:28:55;;;;;;;17.20;10.68;;;19.40;86.70;;;;;;5010455;28;20057;-82
2021/06/11 06:31:21;;;;;;;17.95;11.85;;;19.50;86.10;;;;;;4995729;28;20025;-81
2021/06/11 06:33:46;;;;;;;14.95;10.13;;;19.60;84.80;;;;;;4992865;28;20028;-83
2021/06/11 06:36:12;;;;;;;14.05;9.38;;;19.60;84.30;;;;;;4997586;28;20395;-82
2021/06/11 06:38:38;;;;;;;14.05;9.43;;;19.70;84.10;;;;;;4987616;28;20029;-82
2021/06/11 06:41:06;;;;;;;14.15;9.23;;;19.70;83.30;;;;;;4995998;28;20518;-81
2021/06/11 06:43:32;;;;;;;20.10;13.07;;;19.90;83.00;;;;;;4999802;28;20088;-80
2021/06/11 06:45:59;;;;;;;15.45;10.90;;;19.80;83.40;;;;;;4999498;28;20022;-81
2021/06/11 06:48:25;;;;;;;14.23;9.65;;;19.90;83.20;;;;;;5016016;28;20030;-81
2021/06/11 06:50:51;;;;;;;15.70;9.27;;;19.90;83.60;;;;;;5013092;28;20030;-82
2021/06/11 06:53:18;;;;;;;14.23;9.40;;;20.00;82.40;;;;;;4992609;28;20030;-82
2021/06/11 06:55:44;;;;;;;12.73;9.05;;;20.00;82.00;;;;;;5013704;28;20032;-82
2021/06/11 06:58:10;;;;;;;16.30;9.18;;;20.10;81.80;;;;;;4997020;28;20038;-83
2021/06/11 07:00:36;;;;;;;16.35;8.85;;;20.10;82.00;;;;;;4991184;28;20083;-83
2021/06/11 07:03:03;;;;;;;14.95;9.48;;;20.20;81.70;;;;;;4996189;28;20140;-83
2021/06/11 07:05:29;;;;;;;12.32;8.95;;;20.20;82.00;;;;;;4984866;28;20054;-84
2021/06/11 07:07:54;;;;;;;14.40;9.35;;;20.20;81.90;;;;;;5004612;28;20501;-82
2021/06/11 07:10:21;;;;;;;12.05;8.60;;;20.20;82.10;;;;;;4987739;28;20062;-82
2021/06/11 07:12:46;;;;;;;13.82;9.20;;;20.30;81.90;;;;;;5013525;28;20026;-82
2021/06/11 07:15:13;;;;;;;13.05;9.07;;;20.30;81.40;;;;;;4998682;28;20033;-84
2021/06/11 07:17:40;;;;;;;12.32;8.32;;;20.40;81.10;;;;;;4995922;28;20028;-85
2021/06/11 07:20:06;;;;;;;12.60;8.90;;;20.40;81.40;;;;;;4995707;28;20032;-86
2021/06/11 07:22:32;;;;;;;14.57;8.98;;;20.40;81.90;;;;;;5010053;28;20022;-83
2021/06/11 07:25:02;;;;;;;16.10;9.23;;;20.40;81.80;;;;;;4997128;28;20035;-82
2021/06/11 07:27:31;;;;;;;11.80;8.45;;;20.40;81.80;;;;;;5014969;28;20026;-82
2021/06/11 07:30:01;;;;;;;13.10;9.40;;;20.50;82.50;;;;;;4994263;28;20081;-82
2021/06/11 07:32:27;;;;;;;14.95;10.52;;;20.50;81.50;;;;;;4996956;28;20048;-83
2021/06/11 07:34:53;;;;;;;18.88;14.00;;;20.60;81.00;;;;;;4997612;28;20058;-82
2021/06/11 07:37:18;;;;;;;19.92;10.60;;;20.60;81.10;;;;;;4996532;28;20022;-82
2021/06/11 07:39:44;;;;;;;12.50;9.20;;;20.70;81.60;;;;;;5015382;28;20030;-83
2021/06/11 07:42:14;;;;;;;12.13;9.40;;;20.70;80.90;;;;;;5015859;28;20161;-83
2021/06/11 07:44:39;;;;;;;12.15;8.60;;;20.70;81.00;;;;;;5015409;28;20116;-83
2021/06/11 07:47:06;;;;;;;12.25;9.13;;;20.70;81.00;;;;;;5014974;28;20116;-83
2021/06/11 07:49:32;;;;;;;13.10;9.05;;;20.70;81.10;;;;;;4997617;28;20125;-84
2021/06/11 07:51:58;;;;;;;12.55;9.10;;;20.80;81.20;;;;;;4998079;28;20034;-82
2021/06/11 07:54:24;;;;;;;14.70;9.55;;;20.80;81.00;;;;;;4998297;28;20060;-84
2021/06/11 07:56:49;;;;;;;12.95;9.07;;;20.80;80.20;;;;;;5015999;28;20467;-83
2021/06/11 07:59:15;;;;;;;14.52;9.23;;;20.80;80.50;;;;;;4998048;28;20034;-85
2021/06/11 08:01:41;;;;;;;14.25;9.15;;;20.90;80.20;;;;;;4997159;28;20195;-86
2021/06/11 08:04:07;;;;;;;12.30;8.70;;;20.90;80.20;;;;;;5015366;28;20042;-83
2021/06/11 08:06:33;;;;;;;13.23;9.15;;;20.90;80.20;;;;;;5014847;28;20169;-82
2021/06/11 08:08:59;;;;;;;12.63;9.18;;;20.90;79.90;;;;;;4996256;28;20058;-83
2021/06/11 08:11:24;;;;;;;14.52;9.32;;;20.90;80.10;;;;;;4997317;28;20030;-83
2021/06/11 08:13:50;;;;;;;14.07;9.27;;;21.00;79.30;;;;;;4997520;28;20037;-84
2021/06/11 08:16:16;;;;;;;15.63;9.13;;;21.10;78.50;;;;;;4997296;28;20022;-83
2021/06/11 08:18:45;;;;;;;12.50;8.52;;;21.20;78.10;;;;;;4997446;28;20144;-84
2021/06/11 08:21:10;;;;;;;10.82;7.82;;;21.20;78.00;;;;;;4997729;28;20080;-84
2021/06/11 08:23:36;;;;;;;11.20;8.23;;;21.20;78.20;;;;;;4997540;28;20754;-84
2021/06/11 08:26:02;;;;;;;11.20;7.45;;;21.30;78.20;;;;;;4997306;28;20054;-82
2021/06/11 08:28:28;;;;;;;10.60;8.18;;;21.20;78.10;;;;;;5013962;28;20032;-78
2021/06/11 08:30:53;;;;;;;12.38;8.50;;;21.30;78.50;;;;;;4997415;28;20029;-82
2021/06/11 08:33:19;;;;;;;12.00;8.25;;;21.40;78.20;;;;;;5016030;28;20018;-81
2021/06/11 08:35:47;;;;;;;10.07;7.50;;;21.40;77.80;;;;;;5013101;28;20044;-88
2021/06/11 08:38:13;;;;;;;10.38;7.95;;;21.40;77.60;;;;;;5002323;28;20021;-89
2021/06/11 08:40:39;;;;;;;9.75;7.38;;;21.50;75.80;;;;;;5030063;28;20489;-86
2021/06/11 08:43:06;;;;;;;10.02;7.35;;;21.50;75.40;;;;;;4998381;28;20460;-85
2021/06/11 08:45:33;;;;;;;10.45;7.82;;;21.50;74.60;;;;;;4992042;28;20065;-83
2021/06/11 08:47:58;;;;;;;9.52;7.55;;;21.60;74.40;;;;;;4994733;28;20022;-83
2021/06/11 08:50:32;;;;;;;9.20;6.82;;;21.70;73.60;;;;;;5005775;28;20455;-82
2021/06/11 08:52:59;;;;;;;10.35;7.30;;;21.70;73.40;;;;;;5022006;28;20037;-83
2021/06/11 08:55:26;;;;;;;8.55;6.65;;;21.70;73.30;;;;;;4994858;28;20400;-83
2021/06/11 08:57:52;;;;;;;14.15;7.20;;;21.70;72.10;;;;;;4995143;28;20034;-82
2021/06/11 09:00:20;;;;;;;8.93;6.63;;;21.80;72.30;;;;;;5019557;28;20328;-87
2021/06/11 09:03:07;;;;;;;9.02;6.65;;;21.80;72.10;;;;;;5019395;28;20025;-80
2021/06/11 09:05:34;;;;;;;8.43;6.80;;;21.90;71.20;;;;;;5014947;28;20119;-80
2021/06/11 09:08:17;;;;;;;10.88;6.45;;;21.80;71.40;;;;;;4994372;28;20046;-80
2021/06/11 09:10:44;;;;;;;8.32;6.72;;;21.90;71.30;;;;;;5000482;28;20030;-78
2021/06/11 09:13:10;;;;;;;8.70;6.85;;;22.00;70.70;;;;;;5010285;28;20018;-80
2021/06/11 09:15:36;;;;;;;9.73;6.60;;;22.00;70.50;;;;;;5014015;28;20034;-80
2021/06/11 09:18:18;;;;;;;9.23;6.28;;;22.00;70.70;;;;;;5009732;28;20383;-80
2021/06/11 09:20:43;;;;;;;8.98;6.78;;;22.00;70.60;;;;;;4979034;28;20034;-79
2021/06/11 09:23:09;;;;;;;8.13;5.97;;;22.00;70.50;;;;;;4988399;28;20025;-79
2021/06/11 09:25:41;;;;;;;10.95;6.40;;;22.10;70.50;;;;;;4992317;28;20459;-81
2021/06/11 09:28:08;;;;;;;8.40;5.65;;;22.10;70.50;;;;;;5002291;28;20030;-84
2021/06/11 09:30:36;;;;;;;8.85;5.75;;;22.10;72.80;;;;;;5015257;28;20061;-82
2021/06/11 09:33:08;;;;;;;8.20;6.22;;;22.10;73.50;;;;;;5001196;28;20056;-82
2021/06/11 09:35:43;;;;;;;11.02;6.63;;;22.20;71.00;;;;;;4989986;28;20038;-81
2021/06/11 09:38:26;;;;;;;8.20;6.15;;;22.30;70.70;;;;;;4994604;28;20084;-82
2021/06/11 09:40:57;;;;;;;9.25;7.07;;;22.30;72.70;;;;;;4989974;28;20042;-87
2021/06/11 09:43:24;;;;;;;12.48;9.25;;;22.40;70.10;;;;;;5009400;28;20048;-84
2021/06/11 09:46:04;;;;;;;9.52;7.25;;;22.40;69.30;;;;;;5015470;28;20034;-85
2021/06/11 09:48:45;;;;;;;9.20;6.90;;;22.40;69.70;;;;;;5020385;28;20022;-86
2021/06/11 09:51:23;;;;;;;9.60;6.97;;;22.50;68.40;;;;;;4990619;28;20026;-85
2021/06/11 09:53:49;;;;;;;7.75;6.30;;;22.60;67.90;;;;;;5015035;28;20030;-89
2021/06/11 09:56:27;;;;;;;9.18;5.63;;;22.60;67.70;;;;;;5015209;28;20049;-85
2021/06/11 09:58:54;;;;;;;6.60;4.65;;;22.70;64.50;;;;;;5017030;28;20072;-85
2021/06/11 10:01:20;;;;;;;7.75;4.55;;;22.80;61.10;;;;;;4999152;28;20475;-80
2021/06/11 10:03:48;;;;;;;5.70;4.00;;;22.80;60.70;;;;;;4996028;28;20065;-82
2021/06/11 10:06:16;;;;;;;5.68;4.38;;;22.90;61.10;;;;;;5010349;28;20026;-86
2021/06/11 10:08:45;;;;;;;7.07;4.22;;;22.90;61.90;;;;;;4997787;28;20145;-84
2021/06/11 10:11:15;;;;;;;7.88;4.55;;;23.00;61.30;;;;;;4991966;28;20033;-83
2021/06/11 10:13:42;;;;;;;6.07;5.05;;;22.90;61.50;;;;;;4977346;28;20034;-84
2021/06/11 10:16:11;;;;;;;7.55;4.85;;;23.00;62.00;;;;;;4993535;28;20033;-80
2021/06/11 10:18:37;;;;;;;9.23;5.65;;;23.00;61.60;;;;;;5007158;28;20030;-83
2021/06/11 10:21:04;;;;;;;100.72;46.05;;;23.20;67.10;;;;;;5005581;28;20030;-83
2021/06/11 10:23:31;;;;;;;16.00;10.07;;;23.20;66.40;;;;;;4982022;28;20073;-84
2021/06/11 10:26:00;;;;;;;11.73;7.65;;;23.30;64.40;;;;;;5016213;28;20056;-86
2021/06/11 10:28:47;;;;;;;10.95;5.88;;;23.40;63.90;;;;;;5026290;28;20023;-81
2021/06/11 10:31:16;;;;;;;8.40;4.47;;;23.50;63.40;;;;;;5012739;28;20087;-83
2021/06/11 10:33:44;;;;;;;5.07;3.63;;;23.50;59.00;;;;;;4976222;28;20358;-83
2021/06/11 10:38:59;;;;;;;6.07;3.55;;;23.60;53.30;;;;;;5000603;28;20042;-85
2021/06/11 10:41:26;;;;;;;3.70;3.30;;;23.60;55.30;;;;;;5007951;28;20065;-82
2021/06/11 10:43:52;;;;;;;6.03;3.88;;;23.60;55.20;;;;;;4986307;28;20542;-85
2021/06/11 10:46:24;;;;;;;5.75;4.75;;;23.70;56.80;;;;;;5032910;28;20100;-85
2021/06/11 10:48:55;;;;;;;;;;;23.80;58.10;;;;;;5016459;28;20022;-82
2021/06/11 10:51:37;;;;;;;4.18;2.95;;;23.70;55.10;;;;;;5028148;28;19916;-84
2021/06/11 10:54:29;;;;;;;4.22;3.20;;;23.70;54.20;;;;;;4988768;28;20031;-82
2021/06/11 10:56:58;;;;;;;6.30;3.20;;;23.70;53.80;;;;;;5003146;28;20029;-86
2021/06/11 10:59:36;;;;;;;3.63;3.08;;;23.80;55.20;;;;;;5009416;28;20029;-81
2021/06/11 11:02:02;;;;;;;5.00;3.15;;;23.90;53.60;;;;;;5018625;28;20049;-85
2021/06/11 11:04:31;;;;;;;4.10;2.42;;;23.80;54.30;;;;;;5000586;28;20079;-83
2021/06/11 11:06:57;;;;;;;2.00;1.73;;;23.80;52.70;;;;;;5008853;28;20392;-83
2021/06/11 11:09:42;;;;;;;2.15;1.80;;;23.90;53.10;;;;;;5011024;28;20045;-82
2021/06/11 11:12:08;;;;;;;2.28;1.80;;;24.00;53.30;;;;;;5028642;28;20458;-83
2021/06/11 11:14:39;;;;;;;3.50;1.75;;;24.00;54.30;;;;;;5013911;28;20033;-82
2021/06/11 11:17:06;;;;;;;2.85;1.95;;;24.00;53.00;;;;;;5011664;28;20029;-83
2021/06/11 11:19:52;;;;;;;3.47;1.90;;;24.00;51.10;;;;;;5029101;28;20113;-83
2021/06/11 11:22:35;;;;;;;1.88;1.63;;;24.00;49.60;;;;;;5020862;28;20096;-82
2021/06/11 11:25:14;;;;;;;1.83;1.67;;;24.10;45.90;;;;;;5017377;28;20041;-83
2021/06/11 11:27:50;;;;;;;2.80;1.73;;;24.30;47.50;;;;;;5011658;28;20107;-83
2021/06/11 11:30:17;;;;;;;3.55;2.35;;;24.30;50.60;;;;;;5014962;28;20033;-88
2021/06/11 11:32:42;;;;;;;2.78;1.98;;;24.40;51.10;;;;;;5017976;28;20030;-89
2021/06/11 11:35:09;;;;;;;3.42;2.20;;;24.40;51.40;;;;;;5018490;28;20033;-88
2021/06/11 11:37:34;;;;;;;2.40;1.90;;;24.40;51.10;;;;;;5017423;28;20025;-89
2021/06/11 11:40:00;;;;;;;2.60;2.22;;;24.40;51.40;;;;;;5014971;28;20034;-88
2021/06/11 11:42:26;;;;;;;2.50;2.30;;;24.50;50.40;;;;;;5031686;28;20374;-85
2021/06/11 11:44:51;;;;;;;2.40;2.20;;;24.50;50.60;;;;;;5016757;28;20124;-86
2021/06/11 11:47:17;;;;;;;2.63;2.42;;;24.60;50.60;;;;;;5018433;28;20028;-88
2021/06/11 11:49:43;;;;;;;2.28;2.08;;;24.60;51.50;;;;;;5014591;28;20127;-87
2021/06/11 11:52:09;;;;;;;3.75;2.40;;;24.60;52.20;;;;;;5032091;28;20026;-88
2021/06/11 11:54:35;;;;;;;2.40;2.20;;;24.70;51.70;;;;;;5013452;28;20029;-88
2021/06/11 11:57:01;;;;;;;4.88;2.00;;;24.80;51.60;;;;;;5035502;28;20075;-90
2021/06/11 11:59:28;;;;;;;3.05;2.25;;;24.80;53.40;;;;;;4996627;28;20029;-86
2021/06/11 12:01:55;;;;;;;4.05;2.47;;;24.90;51.20;;;;;;5014605;28;20033;-84
2021/06/11 12:04:22;;;;;;;5.22;2.05;;;25.00;50.70;;;;;;5008558;28;20034;-84
2021/06/11 12:06:48;;;;;;;3.17;2.60;;;25.10;50.40;;;;;;5013067;28;20033;-85
2021/06/11 12:09:14;;;;;;;2.47;2.28;;;25.20;50.60;;;;;;5006517;28;20061;-84
2021/06/11 12:11:40;;;;;;;2.95;2.20;;;25.20;51.40;;;;;;5026904;28;20034;-83
2021/06/11 12:14:06;;;;;;;2.80;2.30;;;25.30;51.20;;;;;;5022407;28;20378;-85
2021/06/11 12:16:32;;;;;;;2.53;2.28;;;25.40;50.10;;;;;;5023918;28;20030;-86
2021/06/11 12:18:58;;;;;;;2.63;2.40;;;25.40;50.80;;;;;;4991245;28;20599;-83
2021/06/11 12:21:24;;;;;;;3.15;2.85;;;25.40;51.10;;;;;;5009839;28;20034;-82
2021/06/11 12:23:50;;;;;;;2.50;2.30;;;25.50;51.00;;;;;;5019332;28;20536;-88
2021/06/11 12:26:16;;;;;;;3.00;2.42;;;25.50;52.00;;;;;;5017384;28;20048;-89
2021/06/11 12:28:42;;;;;;;2.42;2.20;;;25.50;52.10;;;;;;5018412;28;20021;-89
2021/06/11 12:31:08;;;;;;;4.32;2.05;;;25.50;51.60;;;;;;4994500;28;20022;-87
2021/06/11 12:33:34;;;;;;;3.95;2.38;;;25.60;50.40;;;;;;4988932;28;20022;-89
2021/06/11 12:36:01;;;;;;;2.47;2.28;;;25.70;53.10;;;;;;4991197;28;20521;-85
2021/06/11 12:38:26;;;;;;;3.17;2.25;;;25.90;52.50;;;;;;5006227;28;20104;-83
2021/06/11 12:40:55;;;;;;;3.03;2.17;;;25.90;48.70;;;;;;5001800;28;20464;-85
2021/06/11 12:43:28;;;;;;;2.70;2.30;;;26.10;49.00;;;;;;5000285;28;20381;-84
2021/06/11 12:45:54;;;;;;;3.72;1.83;;;26.30;49.10;;;;;;4991873;28;20037;-80
2021/06/11 12:48:20;;;;;;;3.35;2.38;;;26.40;49.70;;;;;;5000357;28;20390;-80
2021/06/11 12:50:45;;;;;;;2.58;2.38;;;26.60;49.80;;;;;;5021020;28;20275;-82